createdAt,value
2023-02-24T00:02:06.094Z,7.65
2023-02-24T00:04:39.782Z,7.56
2023-02-24T00:07:08.091Z,7.50
2023-02-24T00:09:34.621Z,7.51
2023-02-24T00:12:05.044Z,7.55
2023-02-24T00:14:36.718Z,7.51
2023-02-24T00:17:04.195Z,7.52
2023-02-24T00:19:32.776Z,7.50
2023-02-24T00:22:04.331Z,7.55
2023-02-24T00:24:31.371Z,7.53
2023-02-24T00:27:00.582Z,7.55
2023-02-24T00:29:29.981Z,7.42
2023-02-24T00:32:01.168Z,7.47
2023-02-24T00:34:33.630Z,7.60
2023-02-24T00:37:00.561Z,7.58
2023-02-24T00:39:34.186Z,7.54
2023-02-24T00:42:05.637Z,7.53
2023-02-24T00:44:37.867Z,7.49
2023-02-24T00:47:06.870Z,7.47
2023-02-24T00:49:36.046Z,7.47
2023-02-24T00:52:06.676Z,7.40
2023-02-24T00:54:36.782Z,7.49
2023-02-24T00:57:03.812Z,7.43
2023-02-24T00:59:30.542Z,7.46
2023-02-24T01:01:57.091Z,7.37
2023-02-24T01:04:23.725Z,7.44
2023-02-24T01:06:59.967Z,7.47
2023-02-24T01:09:29.292Z,7.43
2023-02-24T01:12:22.410Z,7.41
2023-02-24T01:14:51.201Z,7.35
2023-02-24T01:17:19.317Z,7.50
2023-02-24T01:19:49.090Z,7.43
2023-02-24T01:22:17.441Z,7.54
2023-02-24T01:24:45.003Z,7.47
2023-02-24T01:27:17.727Z,7.40
2023-02-24T01:29:45.384Z,7.33
2023-02-24T01:32:19.156Z,7.41
2023-02-24T01:34:46.721Z,7.53
2023-02-24T01:37:16.585Z,7.33
2023-02-24T01:39:46.819Z,7.30
2023-02-24T01:42:16.969Z,7.25
2023-02-24T01:44:43.738Z,7.28
2023-02-24T01:47:11.301Z,7.33
2023-02-24T01:49:42.499Z,7.35
2023-02-24T01:52:13.836Z,7.33
2023-02-24T01:54:55.244Z,7.43
2023-02-24T01:57:24.326Z,7.31
2023-02-24T01:59:54.099Z,7.39
2023-02-24T02:02:23.138Z,7.31
2023-02-24T02:04:57.325Z,7.33
2023-02-24T02:07:26.850Z,7.32
2023-02-24T02:09:55.158Z,7.36
2023-02-24T02:12:22.830Z,7.22
2023-02-24T02:14:55.990Z,7.28
2023-02-24T02:17:33.284Z,7.31
2023-02-24T02:20:18.160Z,7.36
2023-02-24T02:23:12.438Z,7.42
2023-02-24T02:25:44.954Z,7.29
2023-02-24T02:28:23.993Z,7.19
2023-02-24T02:31:29.554Z,7.30
2023-02-24T02:34:02.159Z,7.29
2023-02-24T02:36:28.679Z,7.19
2023-02-24T02:39:20.334Z,7.12
2023-02-24T02:41:56.566Z,7.16
2023-02-24T02:44:39.793Z,7.15
2023-02-24T02:47:18.655Z,7.20
2023-02-24T02:49:52.000Z,7.28
2023-02-24T02:52:36.067Z,6.99
2023-02-24T02:55:30.675Z,7.13
2023-02-24T02:58:00.397Z,7.00
2023-02-24T03:00:35.203Z,7.02
2023-02-24T03:03:09.913Z,7.15
2023-02-24T03:05:47.033Z,7.18
2023-02-24T03:08:19.023Z,7.22
2023-02-24T03:10:51.150Z,7.10
2023-02-24T03:13:24.063Z,7.20
2023-02-24T03:15:52.715Z,7.10
2023-02-24T03:18:29.104Z,7.19
2023-02-24T03:21:07.636Z,7.10
2023-02-24T03:23:46.160Z,6.98
2023-02-24T03:26:23.043Z,7.05
2023-02-24T03:28:54.001Z,6.93
2023-02-24T03:31:29.576Z,6.89
2023-02-24T03:34:12.967Z,6.88
2023-02-24T03:36:39.681Z,6.70
2023-02-24T03:39:11.248Z,6.57
2023-02-24T03:41:48.772Z,6.68
2023-02-24T03:44:15.495Z,6.72
2023-02-24T03:46:42.811Z,6.66
2023-02-24T03:49:13.632Z,6.61
2023-02-24T03:51:44.871Z,6.57
2023-02-24T03:54:42.925Z,6.58
2023-02-24T03:57:12.593Z,6.55
2023-02-24T03:59:42.078Z,6.60
2023-02-24T04:02:14.398Z,6.47
2023-02-24T04:04:56.763Z,6.54
2023-02-24T04:07:42.962Z,6.50
2023-02-24T04:10:29.052Z,6.57
2023-02-24T04:13:04.297Z,6.48
2023-02-24T04:15:43.746Z,6.48
2023-02-24T04:18:21.688Z,6.48
2023-02-24T04:20:53.461Z,6.42
2023-02-24T04:23:26.868Z,6.31
2023-02-24T04:25:56.411Z,6.40
2023-02-24T04:28:24.706Z,6.40
2023-02-24T04:30:56.057Z,6.42
2023-02-24T04:33:23.898Z,6.35
2023-02-24T04:35:51.214Z,6.44
2023-02-24T04:38:18.527Z,6.29
2023-02-24T04:40:45.690Z,6.25
2023-02-24T04:43:13.112Z,6.27
2023-02-24T04:45:40.225Z,6.27
2023-02-24T04:48:12.733Z,6.35
2023-02-24T04:50:43.093Z,6.31
2023-02-24T04:53:15.285Z,6.30
2023-02-24T04:55:48.795Z,6.31
2023-02-24T04:58:19.648Z,6.19
2023-02-24T05:01:01.125Z,6.27
2023-02-24T05:03:30.524Z,6.19
2023-02-24T05:06:00.396Z,6.17
2023-02-24T05:08:28.303Z,6.12
2023-02-24T05:10:56.839Z,6.11
2023-02-24T05:13:28.070Z,6.06
2023-02-24T05:15:57.306Z,6.13
2023-02-24T05:18:24.726Z,6.04
2023-02-24T05:21:14.414Z,6.05
2023-02-24T05:23:46.740Z,6.08
2023-02-24T05:26:17.196Z,6.03
2023-02-24T05:28:49.236Z,6.03
2023-02-24T05:31:19.478Z,6.05
2023-02-24T05:33:49.487Z,6.07
2023-02-24T05:36:19.243Z,6.08
2023-02-24T05:38:56.611Z,6.05
2023-02-24T05:41:32.568Z,6.09
2023-02-24T05:44:02.586Z,6.08
2023-02-24T05:46:32.617Z,6.22
2023-02-24T05:49:09.199Z,6.28
2023-02-24T05:51:39.212Z,6.31
2023-02-24T05:54:09.450Z,6.16
2023-02-24T05:56:38.814Z,6.15
2023-02-24T05:59:09.187Z,6.11
2023-02-24T06:01:41.464Z,6.10
2023-02-24T06:04:09.778Z,6.16
2023-02-24T06:06:38.804Z,6.30
2023-02-24T06:09:10.771Z,6.27
2023-02-24T06:11:38.490Z,6.37
2023-02-24T06:14:08.265Z,6.50
2023-02-24T06:16:37.147Z,6.53
2023-02-24T06:19:05.195Z,6.51
2023-02-24T06:21:32.139Z,6.39
2023-02-24T06:23:59.769Z,6.32
2023-02-24T06:26:29.954Z,6.39
2023-02-24T06:28:58.778Z,6.49
2023-02-24T06:31:27.600Z,6.54
2023-02-24T06:33:54.582Z,6.55
2023-02-24T06:36:21.271Z,6.70
2023-02-24T06:38:49.572Z,6.55
2023-02-24T06:41:16.458Z,6.69
2023-02-24T06:43:45.263Z,6.75
2023-02-24T06:46:13.977Z,6.60
2023-02-24T06:48:40.718Z,6.77
2023-02-24T06:51:15.836Z,6.77
2023-02-24T06:53:45.701Z,6.68
2023-02-24T06:56:15.256Z,6.72
2023-02-24T06:58:46.740Z,6.72
2023-02-24T07:01:16.571Z,6.90
2023-02-24T07:04:04.772Z,6.93
2023-02-24T07:06:34.711Z,6.88
2023-02-24T07:09:05.769Z,7.00
2023-02-24T07:11:33.905Z,6.91
2023-02-24T07:14:01.661Z,6.77
2023-02-24T07:16:28.985Z,6.98
2023-02-24T07:18:57.176Z,7.15
2023-02-24T07:21:25.863Z,7.23
2023-02-24T07:23:59.728Z,7.33
2023-02-24T07:26:27.883Z,7.43
2023-02-24T07:28:55.223Z,7.48
2023-02-24T07:31:24.412Z,7.46
2023-02-24T07:34:02.133Z,7.43
2023-02-24T07:36:38.886Z,7.43
2023-02-24T07:39:08.287Z,7.46
2023-02-24T07:41:35.027Z,7.63
2023-02-24T07:44:03.402Z,7.87
2023-02-24T07:46:30.492Z,7.93
2023-02-24T07:48:59.865Z,7.83
2023-02-24T07:51:30.750Z,8.06
2023-02-24T07:53:59.388Z,7.97
2023-02-24T07:56:28.402Z,7.93
2023-02-24T07:59:01.962Z,7.60
2023-02-24T08:01:39.012Z,7.57
2023-02-24T08:04:12.607Z,7.78
2023-02-24T08:06:46.242Z,7.82
2023-02-24T08:09:20.281Z,7.93
2023-02-24T08:11:52.499Z,7.99
2023-02-24T08:14:20.885Z,8.05
2023-02-24T08:16:49.723Z,8.09
2023-02-24T08:19:22.078Z,8.35
2023-02-24T08:21:52.688Z,8.17
2023-02-24T08:24:25.474Z,8.15
2023-02-24T08:27:06.630Z,8.12
2023-02-24T08:29:58.167Z,8.20
2023-02-24T08:32:26.284Z,8.20
2023-02-24T08:35:02.928Z,8.27
2023-02-24T08:37:39.746Z,8.36
2023-02-24T08:40:29.438Z,8.54
2023-02-24T08:43:16.540Z,8.44
2023-02-24T08:45:56.770Z,8.69
2023-02-24T08:48:26.674Z,8.60
2023-02-24T08:50:54.654Z,8.74
2023-02-24T08:53:23.671Z,8.71
2023-02-24T08:55:51.836Z,8.76
2023-02-24T08:58:27.084Z,9.09
2023-02-24T09:00:59.511Z,9.09
2023-02-24T09:03:29.304Z,9.45
2023-02-24T09:05:59.391Z,9.25
2023-02-24T09:08:32.673Z,9.26
2023-02-24T09:11:09.974Z,9.32
2023-02-24T09:13:58.205Z,9.52
2023-02-24T09:16:25.096Z,9.45
2023-02-24T09:19:10.855Z,9.52
2023-02-24T09:21:50.401Z,9.64
2023-02-24T09:24:27.294Z,9.80
2023-02-24T09:26:59.965Z,9.91
2023-02-24T09:29:33.880Z,10.02
2023-02-24T09:32:05.447Z,9.88
2023-02-24T09:34:38.606Z,9.96
2023-02-24T09:37:05.408Z,10.07
2023-02-24T09:39:54.334Z,10.54
2023-02-24T09:42:22.727Z,10.75
2023-02-24T09:44:55.798Z,10.91
2023-02-24T09:47:40.138Z,11.16
2023-02-24T09:50:51.636Z,11.48
2023-02-24T09:53:19.973Z,11.45
2023-02-24T09:56:00.981Z,11.55
2023-02-24T09:58:50.542Z,11.73
2023-02-24T10:01:33.568Z,11.76
2023-02-24T10:04:21.362Z,11.88
2023-02-24T10:06:57.712Z,11.83
2023-02-24T10:09:27.185Z,12.27
2023-02-24T10:12:11.699Z,12.47
2023-02-24T10:15:20.740Z,12.36
2023-02-24T10:17:55.489Z,12.61
2023-02-24T10:20:39.354Z,12.75
2023-02-24T10:23:32.882Z,12.86
2023-02-24T10:26:07.574Z,13.11
2023-02-24T10:28:53.484Z,13.15
2023-02-24T10:31:29.846Z,13.15
2023-02-24T10:34:10.641Z,13.44
2023-02-24T10:36:38.074Z,13.51
2023-02-24T10:39:26.034Z,13.76
2023-02-24T10:41:57.706Z,13.93
2023-02-24T10:44:39.043Z,13.99
2023-02-24T10:47:11.901Z,14.09
2023-02-24T10:49:57.244Z,14.38
2023-02-24T10:53:02.019Z,14.48
2023-02-24T10:55:44.778Z,14.31
2023-02-24T10:58:27.925Z,14.72
2023-02-24T11:01:13.411Z,14.42
2023-02-24T11:04:00.924Z,14.71
2023-02-24T11:06:41.673Z,15.31
2023-02-24T11:09:29.235Z,15.11
2023-02-24T11:12:22.238Z,15.21
2023-02-24T11:15:14.096Z,15.29
2023-02-24T11:17:57.483Z,15.42
2023-02-24T11:20:48.909Z,15.40
2023-02-24T11:23:24.962Z,15.47
2023-02-24T11:25:58.312Z,15.64
2023-02-24T11:28:31.109Z,15.54
2023-02-24T11:31:23.859Z,15.60
2023-02-24T11:34:32.210Z,15.26
2023-02-24T11:37:06.594Z,15.45
2023-02-24T11:39:41.189Z,15.57
2023-02-24T11:42:42.086Z,15.23
2023-02-24T11:45:34.718Z,15.24
2023-02-24T11:48:04.797Z,15.33
2023-02-24T11:50:46.772Z,15.22
2023-02-24T11:53:55.034Z,15.24
2023-02-24T11:56:27.238Z,15.51
2023-02-24T11:59:12.779Z,15.68
2023-02-24T12:01:59.227Z,15.82
2023-02-24T12:04:37.906Z,15.91
2023-02-24T12:07:19.180Z,15.73
2023-02-24T12:10:07.012Z,15.74
2023-02-24T12:12:59.346Z,15.84
2023-02-24T12:15:48.769Z,15.69
2023-02-24T12:18:21.725Z,15.78
2023-02-24T12:20:57.720Z,15.68
2023-02-24T12:23:34.553Z,15.69
2023-02-24T12:26:09.117Z,15.93
2023-02-24T12:29:03.529Z,16.19
2023-02-24T12:31:45.905Z,16.15
2023-02-24T12:34:27.809Z,16.13
2023-02-24T12:37:22.282Z,16.03
2023-02-24T12:40:00.870Z,16.05
2023-02-24T12:42:27.416Z,15.93
2023-02-24T12:45:33.958Z,15.94
2023-02-24T12:48:50.181Z,16.00
2023-02-24T12:51:39.617Z,16.04
2023-02-24T12:54:34.109Z,16.06
2023-02-24T12:57:20.066Z,16.11
2023-02-24T12:59:47.445Z,16.31
2023-02-24T13:02:26.477Z,16.36
2023-02-24T13:05:13.536Z,16.30
2023-02-24T13:07:40.109Z,16.25
2023-02-24T13:10:30.984Z,16.29
2023-02-24T13:13:07.712Z,16.34
2023-02-24T13:15:34.410Z,16.22
2023-02-24T13:18:01.270Z,16.21
2023-02-24T13:20:37.867Z,16.27
2023-02-24T13:23:19.996Z,16.14
2023-02-24T13:25:55.473Z,16.07
2023-02-24T13:28:26.493Z,15.97
2023-02-24T13:31:05.950Z,15.84
2023-02-24T13:33:43.963Z,15.67
2023-02-24T13:36:17.420Z,15.89
2023-02-24T13:39:05.528Z,15.94
2023-02-24T13:41:32.130Z,15.98
2023-02-24T13:44:03.691Z,16.18
2023-02-24T13:46:50.793Z,16.26
2023-02-24T13:49:35.840Z,16.33
2023-02-24T13:52:15.778Z,16.65
2023-02-24T13:55:01.184Z,16.83
2023-02-24T13:57:42.702Z,16.68
2023-02-24T14:00:12.132Z,16.61
2023-02-24T14:02:43.048Z,16.53
2023-02-24T14:05:21.454Z,16.40
2023-02-24T14:07:50.545Z,16.35
2023-02-24T14:10:20.895Z,16.28
2023-02-24T14:12:49.815Z,16.22
2023-02-24T14:15:21.810Z,16.27
2023-02-24T14:17:59.758Z,16.30
2023-02-24T14:20:29.354Z,16.18
2023-02-24T14:22:58.874Z,16.05
2023-02-24T14:25:30.561Z,16.19
2023-02-24T14:27:57.961Z,16.11
2023-02-24T14:30:31.472Z,15.99
2023-02-24T14:32:58.707Z,15.79
2023-02-24T14:35:46.811Z,15.68
2023-02-24T14:38:39.786Z,15.55
2023-02-24T14:41:17.371Z,15.52
2023-02-24T14:43:43.955Z,15.51
2023-02-24T14:46:10.679Z,15.44
2023-02-24T14:48:37.326Z,15.34
2023-02-24T14:51:31.465Z,15.32
2023-02-24T14:54:02.999Z,15.27
2023-02-24T14:56:32.632Z,15.30
2023-02-24T14:59:16.119Z,15.37
2023-02-24T15:01:48.382Z,15.30
2023-02-24T15:04:30.989Z,15.37
2023-02-24T15:06:57.922Z,15.43
2023-02-24T15:09:29.475Z,15.45
2023-02-24T15:11:56.549Z,15.48
2023-02-24T15:14:28.898Z,15.49
2023-02-24T15:17:01.369Z,15.43
2023-02-24T15:19:38.893Z,15.38
2023-02-24T15:22:25.935Z,15.27
2023-02-24T15:24:56.015Z,15.20
2023-02-24T15:27:26.349Z,15.09
2023-02-24T15:30:26.918Z,15.08
2023-02-24T15:33:13.918Z,15.01
2023-02-24T15:35:52.800Z,14.89
2023-02-24T15:38:31.640Z,14.71
2023-02-24T15:41:02.795Z,14.56
2023-02-24T15:43:35.251Z,14.41
2023-02-24T15:46:13.982Z,14.31
2023-02-24T15:48:44.323Z,14.22
2023-02-24T15:51:22.505Z,14.18
2023-02-24T15:53:49.147Z,14.14
2023-02-24T15:56:17.600Z,14.09
2023-02-24T15:58:44.353Z,14.09
2023-02-24T16:01:14.568Z,14.15
2023-02-24T16:03:41.206Z,14.10
2023-02-24T16:06:17.328Z,14.08
2023-02-24T16:08:46.444Z,14.11
2023-02-24T16:11:15.925Z,14.08
2023-02-24T16:13:52.258Z,14.03
2023-02-24T16:16:19.901Z,14.01
2023-02-24T16:18:46.765Z,13.93
2023-02-24T16:21:13.921Z,13.88
2023-02-24T16:23:40.754Z,13.85
2023-02-24T16:26:16.343Z,13.70
2023-02-24T16:28:43.804Z,13.67
2023-02-24T16:31:10.465Z,13.68
2023-02-24T16:33:53.301Z,13.60
2023-02-24T16:36:23.916Z,13.63
2023-02-24T16:38:51.800Z,13.54
2023-02-24T16:41:18.415Z,13.58
2023-02-24T16:43:45.057Z,13.52
2023-02-24T16:46:22.253Z,13.54
2023-02-24T16:48:53.219Z,13.48
2023-02-24T16:51:20.537Z,13.47
2023-02-24T16:53:47.154Z,13.46
2023-02-24T16:56:15.233Z,13.49
2023-02-24T16:58:41.901Z,13.39
2023-02-24T17:01:09.709Z,13.46
2023-02-24T17:03:43.366Z,13.42
2023-02-24T17:06:09.982Z,13.38
2023-02-24T17:08:36.882Z,13.39
2023-02-24T17:11:03.890Z,13.29
2023-02-24T17:13:30.505Z,13.33
2023-02-24T17:15:57.501Z,13.28
2023-02-24T17:18:25.324Z,13.14
2023-02-24T17:20:52.689Z,13.03
2023-02-24T17:23:19.711Z,13.06
2023-02-24T17:25:52.008Z,13.10
2023-02-24T17:28:19.295Z,13.13
2023-02-24T17:30:46.616Z,12.94
2023-02-24T17:33:14.537Z,13.02
2023-02-24T17:35:46.980Z,12.95
2023-02-24T17:38:14.844Z,12.93
2023-02-24T17:40:42.799Z,12.85
2023-02-24T17:43:09.400Z,12.86
2023-02-24T17:45:36.381Z,12.84
2023-02-24T17:48:03.093Z,12.70
2023-02-24T17:50:29.723Z,12.73
2023-02-24T17:52:57.651Z,12.74
2023-02-24T17:55:24.326Z,12.62
2023-02-24T17:57:51.036Z,12.61
2023-02-24T18:00:18.034Z,12.57
2023-02-24T18:02:44.847Z,12.64
2023-02-24T18:05:11.544Z,12.67
2023-02-24T18:07:38.296Z,12.49
2023-02-24T18:10:05.993Z,12.48
2023-02-24T18:12:32.635Z,12.49
2023-02-24T18:15:07.955Z,12.49
2023-02-24T18:17:36.557Z,12.47
2023-02-24T18:20:03.855Z,12.43
2023-02-24T18:22:30.501Z,12.37
2023-02-24T18:24:57.249Z,12.39
2023-02-24T18:27:23.842Z,12.38
2023-02-24T18:29:50.434Z,12.38
2023-02-24T18:32:17.262Z,12.40
2023-02-24T18:34:43.986Z,12.43
2023-02-24T18:37:10.580Z,12.34
2023-02-24T18:39:37.185Z,12.40
2023-02-24T18:42:03.953Z,12.38
2023-02-24T18:44:31.203Z,12.39
2023-02-24T18:46:57.850Z,12.34
2023-02-24T18:49:24.557Z,12.19
2023-02-24T18:51:51.177Z,12.16
2023-02-24T18:54:17.736Z,12.04
2023-02-24T18:56:44.384Z,11.89
2023-02-24T18:59:11.010Z,11.86
2023-02-24T19:01:39.777Z,11.80
2023-02-24T19:04:08.254Z,11.89
2023-02-24T19:06:35.869Z,11.81
2023-02-24T19:09:07.205Z,11.85
2023-02-24T19:11:34.281Z,11.77
2023-02-24T19:14:00.986Z,11.82
2023-02-24T19:16:28.624Z,11.81
2023-02-24T19:18:57.311Z,11.80
2023-02-24T19:21:25.484Z,11.79
2023-02-24T19:23:52.205Z,11.78
2023-02-24T19:26:22.535Z,11.75
2023-02-24T19:28:50.637Z,11.73
2023-02-24T19:31:21.080Z,11.64
2023-02-24T19:34:01.834Z,11.62
2023-02-24T19:36:29.933Z,11.53
2023-02-24T19:38:56.509Z,11.51
2023-02-24T19:41:23.427Z,11.43
2023-02-24T19:43:50.048Z,11.40
2023-02-24T19:46:17.931Z,11.44
2023-02-24T19:48:46.004Z,11.47
2023-02-24T19:51:14.502Z,11.50
2023-02-24T19:53:41.487Z,11.51
2023-02-24T19:56:08.493Z,11.51
2023-02-24T19:58:35.926Z,11.43
2023-02-24T20:01:10.582Z,11.49
2023-02-24T20:03:38.984Z,11.49
2023-02-24T20:06:06.081Z,11.48
2023-02-24T20:08:35.201Z,11.48
2023-02-24T20:11:04.905Z,11.47
2023-02-24T20:13:31.588Z,11.48
2023-02-24T20:16:06.996Z,11.48
2023-02-24T20:18:33.693Z,11.41
2023-02-24T20:21:01.313Z,11.45
2023-02-24T20:23:28.177Z,11.38
2023-02-24T20:25:56.910Z,11.30
2023-02-24T20:28:24.119Z,11.25
2023-02-24T20:30:51.409Z,11.24
2023-02-24T20:33:18.437Z,11.28
2023-02-24T20:35:45.759Z,11.32
2023-02-24T20:38:13.963Z,11.34
2023-02-24T20:40:40.865Z,11.24
2023-02-24T20:43:09.984Z,11.25
2023-02-24T20:45:38.310Z,11.22
2023-02-24T20:48:04.988Z,11.22
2023-02-24T20:50:31.546Z,11.23
2023-02-24T20:52:58.141Z,11.17
2023-02-24T20:55:24.899Z,11.18
2023-02-24T20:57:51.490Z,11.13
2023-02-24T21:00:18.373Z,11.03
2023-02-24T21:02:45.133Z,10.88
2023-02-24T21:05:21.070Z,10.85
2023-02-24T21:07:50.143Z,10.69
2023-02-24T21:10:18.298Z,10.54
2023-02-24T21:12:45.287Z,10.42
2023-02-24T21:15:12.346Z,10.30
2023-02-24T21:17:39.634Z,10.08
2023-02-24T21:20:07.464Z,9.95
2023-02-24T21:22:34.078Z,9.99
2023-02-24T21:25:00.665Z,10.02
2023-02-24T21:27:27.352Z,10.05
2023-02-24T21:29:54.119Z,10.10
2023-02-24T21:32:20.797Z,9.99
2023-02-24T21:34:47.425Z,9.88
2023-02-24T21:37:13.979Z,9.91
2023-02-24T21:39:40.511Z,9.89
2023-02-24T21:42:07.597Z,9.90
2023-02-24T21:44:34.176Z,9.87
2023-02-24T21:47:00.707Z,9.82
2023-02-24T21:49:27.276Z,9.83
2023-02-24T21:51:55.213Z,9.89
2023-02-24T21:54:22.121Z,9.85
2023-02-24T21:56:48.731Z,9.66
2023-02-24T21:59:15.297Z,9.60
2023-02-24T22:01:44.546Z,9.47
2023-02-24T22:04:13.815Z,9.30
2023-02-24T22:06:42.040Z,9.23
2023-02-24T22:09:10.406Z,9.19
2023-02-24T22:11:39.706Z,9.11
2023-02-24T22:14:09.259Z,8.96
2023-02-24T22:16:36.222Z,8.91
2023-02-24T22:19:03.790Z,8.85
2023-02-24T22:21:30.906Z,8.81
2023-02-24T22:24:00.190Z,8.75
2023-02-24T22:26:29.474Z,8.65
2023-02-24T22:28:56.963Z,8.60
2023-02-24T22:31:27.300Z,8.53
2023-02-24T22:33:55.705Z,8.40
2023-02-24T22:36:25.331Z,8.44
2023-02-24T22:38:52.826Z,8.43
2023-02-24T22:41:22.494Z,8.32
2023-02-24T22:43:49.596Z,8.37
2023-02-24T22:46:22.839Z,8.32
2023-02-24T22:48:50.419Z,8.24
2023-02-24T22:51:18.606Z,8.18
2023-02-24T22:53:47.464Z,8.13
2023-02-24T22:56:16.186Z,8.11
2023-02-24T22:58:43.531Z,8.07
2023-02-24T23:01:12.612Z,8.03
2023-02-24T23:03:40.252Z,7.94
2023-02-24T23:06:09.518Z,7.89
2023-02-24T23:08:38.058Z,7.90
2023-02-24T23:11:27.860Z,7.90
2023-02-24T23:13:56.095Z,7.88
2023-02-24T23:16:31.838Z,7.86
2023-02-24T23:19:00.953Z,7.99
2023-02-24T23:21:34.913Z,8.00
2023-02-24T23:24:01.949Z,7.92
2023-02-24T23:26:32.686Z,7.82
2023-02-24T23:28:59.632Z,7.81
2023-02-24T23:31:27.095Z,7.76
2023-02-24T23:33:54.906Z,7.66
2023-02-24T23:36:23.856Z,7.66
2023-02-24T23:38:51.096Z,7.62
2023-02-24T23:41:17.734Z,7.64
2023-02-24T23:43:44.315Z,7.69
2023-02-24T23:46:12.622Z,7.71
2023-02-24T23:48:39.798Z,7.74
2023-02-24T23:51:09.074Z,7.74
2023-02-24T23:53:41.311Z,7.82
2023-02-24T23:56:16.581Z,7.75
2023-02-24T23:58:44.086Z,7.77
